Arvilla, North Dakota
Current Conditions -  °F | °C
As of 1:58 AM on Tuesday 21 Oct 2014 (Local Time) from KRDR Reporting Station
Clear Clear  
Wind Chill: 35°   Ceiling: Unl
Heat Index: 39°   Visibility: 10mi
Dew Point: 38°   Wind: 6mph
Humidity: 97%   Direction: 180°S
Pressure: 30.05"   Gusts: NA
Location:  47.92°N, 97.49°W
Report Text: KRDR 210658Z AUTO 18005KT 10SM CLR 04/04 A3005 RMK AO2 SLP186 T00390035
Loading
Personal Weather Stations






























Interactive Weather Map
Tropical Storm Tracking
New forecast layout! Learn more

10-Day Weather Forecast

Advertisements
Track Severe Weather on mobile